createdAt,value
2023-01-31T00:00:18.114Z,95.53
2023-01-31T00:01:18.096Z,95.53
2023-01-31T00:02:18.187Z,95.43
2023-01-31T00:03:18.140Z,95.43
2023-01-31T00:04:18.055Z,95.43
2023-01-31T00:05:18.618Z,95.53
2023-01-31T00:06:18.065Z,95.53
2023-01-31T00:07:18.030Z,95.53
2023-01-31T00:08:18.019Z,95.53
2023-01-31T00:09:18.020Z,95.43
2023-01-31T00:10:18.071Z,95.43
2023-01-31T00:11:17.986Z,95.32
2023-01-31T00:12:18.058Z,95.32
2023-01-31T00:13:17.996Z,95.32
2023-01-31T00:14:17.948Z,95.32
2023-01-31T00:15:18.371Z,95.21
2023-01-31T00:16:17.925Z,95.11
2023-01-31T00:17:18.032Z,95.32
2023-01-31T00:18:17.916Z,95.32
2023-01-31T00:19:17.916Z,95.32
2023-01-31T00:20:17.908Z,95.32
2023-01-31T00:21:17.937Z,95.32
2023-01-31T00:22:17.906Z,95.43
2023-01-31T00:23:17.872Z,95.43
2023-01-31T00:24:17.848Z,95.47
2023-01-31T00:25:18.252Z,95.57
2023-01-31T00:26:18.632Z,95.57
2023-01-31T00:27:17.848Z,95.68
2023-01-31T00:28:17.900Z,95.89
2023-01-31T00:29:17.803Z,95.84
2023-01-31T00:30:17.818Z,95.64
2023-01-31T00:31:17.911Z,95.43
2023-01-31T00:32:17.796Z,95.47
2023-01-31T00:33:17.801Z,95.78
2023-01-31T00:34:17.755Z,95.78
2023-01-31T00:35:18.115Z,95.78
2023-01-31T00:36:17.764Z,95.89
2023-01-31T00:37:17.760Z,96.10
2023-01-31T00:38:17.701Z,96.41
2023-01-31T00:39:17.700Z,96.31
2023-01-31T00:40:17.740Z,96.10
2023-01-31T00:41:17.682Z,95.99
2023-01-31T00:42:17.683Z,96.14
2023-01-31T00:43:17.656Z,96.35
2023-01-31T00:44:18.136Z,96.45
2023-01-31T00:45:18.202Z,96.45
2023-01-31T00:46:18.589Z,96.66
2023-01-31T00:47:17.638Z,96.66
2023-01-31T00:48:17.600Z,96.62
2023-01-31T00:49:17.636Z,96.45
2023-01-31T00:50:17.582Z,96.41
2023-01-31T00:51:17.583Z,96.20
2023-01-31T00:52:17.612Z,96.25
2023-01-31T00:53:17.583Z,96.35
2023-01-31T00:54:17.556Z,96.25
2023-01-31T00:55:18.287Z,96.14
2023-01-31T00:56:17.542Z,96.14
2023-01-31T00:57:17.512Z,96.25
2023-01-31T00:58:17.507Z,96.04
2023-01-31T00:59:17.507Z,96.04
2023-01-31T01:00:17.534Z,96.04
2023-01-31T01:01:17.481Z,96.04
2023-01-31T01:02:17.522Z,95.83
2023-01-31T01:03:17.460Z,95.83
2023-01-31T01:04:17.443Z,95.72
2023-01-31T01:05:17.442Z,95.51
2023-01-31T01:06:17.438Z,95.62
2023-01-31T01:07:17.437Z,95.83
2023-01-31T01:08:17.410Z,95.72
2023-01-31T01:09:17.408Z,95.83
2023-01-31T01:10:17.379Z,95.83
2023-01-31T01:11:17.426Z,96.04
2023-01-31T01:12:17.376Z,95.83
2023-01-31T01:13:17.391Z,95.62
2023-01-31T01:14:17.343Z,95.41
2023-01-31T01:15:18.086Z,95.20
2023-01-31T01:16:17.412Z,95.31
2023-01-31T01:17:17.386Z,95.20
2023-01-31T01:18:17.304Z,94.99
2023-01-31T01:19:17.298Z,94.89
2023-01-31T01:20:17.287Z,94.89
2023-01-31T01:21:17.267Z,94.89
2023-01-31T01:22:17.298Z,95.09
2023-01-31T01:23:17.274Z,94.74
2023-01-31T01:24:17.244Z,94.42
2023-01-31T01:25:17.271Z,94.32
2023-01-31T01:26:17.348Z,94.32
2023-01-31T01:27:17.226Z,94.36
2023-01-31T01:28:17.226Z,94.57
2023-01-31T01:29:17.229Z,94.64
2023-01-31T01:30:18.103Z,94.42
2023-01-31T01:31:17.268Z,94.32
2023-01-31T01:32:17.223Z,94.42
2023-01-31T01:33:17.181Z,94.42
2023-01-31T01:34:17.171Z,94.53
2023-01-31T01:35:17.182Z,94.42
2023-01-31T01:36:17.125Z,94.53
2023-01-31T01:37:17.120Z,94.32
2023-01-31T01:38:17.126Z,94.32
2023-01-31T01:39:17.155Z,94.01
2023-01-31T01:40:17.074Z,93.90
2023-01-31T01:41:17.097Z,93.59
2023-01-31T01:42:17.088Z,93.48
2023-01-31T01:43:17.041Z,93.59
2023-01-31T01:44:17.052Z,93.27
2023-01-31T01:45:18.802Z,93.27
2023-01-31T01:46:17.057Z,93.38
2023-01-31T01:47:17.021Z,93.38
2023-01-31T01:48:17.026Z,93.38
2023-01-31T01:49:16.983Z,93.17
2023-01-31T01:50:17.025Z,93.32
2023-01-31T01:51:16.973Z,93.21
2023-01-31T01:52:16.969Z,93.52
2023-01-31T01:53:16.950Z,93.52
2023-01-31T01:54:16.939Z,93.63
2023-01-31T01:55:16.948Z,93.99
2023-01-31T01:56:16.909Z,94.09
2023-01-31T01:57:17.006Z,94.30
2023-01-31T01:58:16.988Z,94.40
2023-01-31T01:59:16.897Z,94.72
2023-01-31T02:00:16.898Z,94.62
2023-01-31T02:01:16.974Z,94.51
2023-01-31T02:02:16.919Z,94.66
2023-01-31T02:03:16.856Z,94.66
2023-01-31T02:04:16.844Z,94.87
2023-01-31T02:05:16.994Z,94.76
2023-01-31T02:06:16.851Z,94.87
2023-01-31T02:07:16.815Z,94.87
2023-01-31T02:08:16.791Z,94.87
2023-01-31T02:09:16.785Z,95.50
2023-01-31T02:10:16.774Z,95.39
2023-01-31T02:11:16.819Z,95.29
2023-01-31T02:12:16.758Z,95.39
2023-01-31T02:13:16.784Z,95.18
2023-01-31T02:14:16.731Z,95.50
2023-01-31T02:15:16.739Z,95.43
2023-01-31T02:16:16.808Z,95.64
2023-01-31T02:17:16.725Z,95.60
2023-01-31T02:18:16.715Z,95.60
2023-01-31T02:19:16.689Z,95.54
2023-01-31T02:20:16.700Z,95.64
2023-01-31T02:21:16.664Z,95.50
2023-01-31T02:22:16.676Z,95.33
2023-01-31T02:23:16.660Z,95.33
2023-01-31T02:24:16.630Z,95.43
2023-01-31T02:25:16.646Z,95.75
2023-01-31T02:26:16.627Z,95.90
2023-01-31T02:27:16.613Z,95.90
2023-01-31T02:28:16.599Z,95.68
2023-01-31T02:29:16.598Z,96.00
2023-01-31T02:30:16.633Z,96.42
2023-01-31T02:31:16.577Z,96.31
2023-01-31T02:32:16.583Z,96.36
2023-01-31T02:33:16.532Z,96.57
2023-01-31T02:34:16.530Z,96.78
2023-01-31T02:35:16.540Z,96.89
2023-01-31T02:36:16.524Z,97.09
2023-01-31T02:37:16.512Z,97.35
2023-01-31T02:38:16.499Z,97.62
2023-01-31T02:39:16.504Z,97.62
2023-01-31T02:40:16.498Z,97.83
2023-01-31T02:41:16.474Z,98.25
2023-01-31T02:42:16.453Z,98.04
2023-01-31T02:43:16.435Z,97.62
2023-01-31T02:44:16.471Z,97.41
2023-01-31T02:45:16.453Z,97.72
2023-01-31T02:46:16.486Z,97.72
2023-01-31T02:47:16.415Z,97.41
2023-01-31T02:48:16.395Z,97.41
2023-01-31T02:49:16.413Z,97.30
2023-01-31T02:50:16.375Z,97.20
2023-01-31T02:51:16.350Z,97.41
2023-01-31T02:52:16.353Z,97.45
2023-01-31T02:53:16.337Z,97.56
2023-01-31T02:54:16.358Z,97.77
2023-01-31T02:55:16.333Z,98.29
2023-01-31T02:56:16.322Z,98.25
2023-01-31T02:57:16.328Z,97.72
2023-01-31T02:58:16.291Z,97.20
2023-01-31T02:59:16.287Z,97.41
2023-01-31T03:00:16.276Z,97.35
2023-01-31T03:01:16.319Z,97.35
2023-01-31T03:02:16.330Z,97.29
2023-01-31T03:03:16.229Z,98.29
2023-01-31T03:04:16.229Z,97.98
2023-01-31T03:05:16.238Z,97.77
2023-01-31T03:06:16.209Z,97.92
2023-01-31T03:07:16.209Z,98.13
2023-01-31T03:08:16.638Z,98.50
2023-01-31T03:09:16.174Z,98.29
2023-01-31T03:10:16.624Z,98.71
2023-01-31T03:11:16.173Z,98.50
2023-01-31T03:12:16.196Z,98.77
2023-01-31T03:13:16.133Z,98.46
2023-01-31T03:14:16.133Z,98.25
2023-01-31T03:15:16.117Z,98.04
2023-01-31T03:16:16.103Z,97.89
2023-01-31T03:17:21.299Z,97.58
2023-01-31T03:18:16.125Z,97.58
2023-01-31T03:19:16.071Z,97.36
2023-01-31T03:20:16.078Z,97.05
2023-01-31T03:21:16.051Z,97.11
2023-01-31T03:22:16.042Z,96.12
2023-01-31T03:23:16.600Z,95.70
2023-01-31T03:24:16.059Z,95.50
2023-01-31T03:25:16.462Z,95.18
2023-01-31T03:26:16.657Z,94.87
2023-01-31T03:27:16.723Z,94.30
2023-01-31T03:28:16.378Z,93.88
2023-01-31T03:29:16.339Z,93.67
2023-01-31T03:30:16.199Z,93.46
2023-01-31T03:31:16.489Z,93.04
2023-01-31T03:32:16.050Z,92.83
2023-01-31T03:33:15.979Z,92.52
2023-01-31T03:34:15.921Z,92.42
2023-01-31T03:35:15.925Z,92.42
2023-01-31T03:36:15.921Z,92.42
2023-01-31T03:37:15.920Z,92.52
2023-01-31T03:38:16.150Z,92.42
2023-01-31T03:39:16.373Z,92.31
2023-01-31T03:40:16.289Z,92.10
2023-01-31T03:41:16.046Z,91.89
2023-01-31T03:42:16.158Z,91.58
2023-01-31T03:43:15.853Z,91.58
2023-01-31T03:44:15.857Z,91.58
2023-01-31T03:45:15.921Z,91.47
2023-01-31T03:46:15.807Z,91.47
2023-01-31T03:47:15.821Z,91.58
2023-01-31T03:48:15.789Z,91.27
2023-01-31T03:49:15.789Z,90.91
2023-01-31T03:50:16.460Z,90.70
2023-01-31T03:51:16.195Z,90.70
2023-01-31T03:52:16.167Z,90.84
2023-01-31T03:53:16.054Z,90.59
2023-01-31T03:54:16.040Z,90.49
2023-01-31T03:55:15.890Z,90.64
2023-01-31T03:56:15.698Z,90.74
2023-01-31T03:57:15.704Z,90.84
2023-01-31T03:58:15.701Z,90.95
2023-01-31T03:59:15.699Z,91.16
2023-01-31T04:00:15.670Z,91.20
2023-01-31T04:01:15.685Z,91.41
2023-01-31T04:02:16.243Z,91.52
2023-01-31T04:03:16.155Z,91.52
2023-01-31T04:04:16.018Z,91.41
2023-01-31T04:05:16.002Z,91.66
2023-01-31T04:06:15.607Z,91.98
2023-01-31T04:07:15.585Z,92.08
2023-01-31T04:08:15.574Z,91.98
2023-01-31T04:09:15.583Z,91.87
2023-01-31T04:10:15.585Z,91.87
2023-01-31T04:11:15.588Z,91.98
2023-01-31T04:12:15.532Z,91.98
2023-01-31T04:13:16.051Z,92.23
2023-01-31T04:14:16.090Z,92.44
2023-01-31T04:15:15.977Z,92.54
2023-01-31T04:16:15.541Z,92.80
2023-01-31T04:17:15.493Z,93.11
2023-01-31T04:18:23.306Z,93.32
2023-01-31T04:19:15.474Z,93.70
2023-01-31T04:20:15.485Z,93.17
2023-01-31T04:21:15.484Z,92.96
2023-01-31T04:22:15.435Z,92.90
2023-01-31T04:23:15.415Z,92.90
2023-01-31T04:24:15.411Z,93.11
2023-01-31T04:25:15.424Z,93.43
2023-01-31T04:26:15.418Z,93.53
2023-01-31T04:27:15.378Z,93.53
2023-01-31T04:28:15.383Z,93.32
2023-01-31T04:29:15.388Z,93.32
2023-01-31T04:30:15.392Z,93.43
2023-01-31T04:31:15.405Z,93.63
2023-01-31T04:32:15.351Z,93.78
2023-01-31T04:33:15.327Z,93.99
2023-01-31T04:34:15.317Z,94.41
2023-01-31T04:35:15.647Z,94.73
2023-01-31T04:36:15.299Z,94.73
2023-01-31T04:37:15.354Z,94.93
2023-01-31T04:38:15.274Z,95.15
2023-01-31T04:39:15.277Z,95.46
2023-01-31T04:40:15.254Z,95.56
2023-01-31T04:41:15.260Z,95.78
2023-01-31T04:42:15.230Z,95.62
2023-01-31T04:43:15.246Z,95.52
2023-01-31T04:44:15.215Z,95.52
2023-01-31T04:45:15.277Z,95.42
2023-01-31T04:46:15.282Z,95.56
2023-01-31T04:47:15.204Z,95.73
2023-01-31T04:48:15.176Z,96.04
2023-01-31T04:49:15.171Z,95.73
2023-01-31T04:50:15.150Z,95.62
2023-01-31T04:51:15.150Z,95.42
2023-01-31T04:52:15.176Z,95.31
2023-01-31T04:53:15.198Z,95.42
2023-01-31T04:54:15.121Z,95.42
2023-01-31T04:55:15.096Z,95.42
2023-01-31T04:56:15.089Z,95.42
2023-01-31T04:57:15.096Z,95.62
2023-01-31T04:58:15.085Z,95.78
2023-01-31T04:59:15.081Z,95.98
2023-01-31T05:00:15.053Z,96.25
2023-01-31T05:01:15.125Z,96.25
2023-01-31T05:02:15.057Z,96.15
2023-01-31T05:03:15.051Z,96.15
2023-01-31T05:04:15.045Z,96.19
2023-01-31T05:05:15.026Z,96.09
2023-01-31T05:06:15.002Z,95.98
2023-01-31T05:07:14.976Z,96.13
2023-01-31T05:08:14.996Z,96.45
2023-01-31T05:09:14.985Z,96.66
2023-01-31T05:10:15.020Z,96.87
2023-01-31T05:11:14.957Z,96.97
2023-01-31T05:12:14.971Z,97.18
2023-01-31T05:13:14.932Z,97.18
2023-01-31T05:14:14.922Z,97.39
2023-01-31T05:15:14.892Z,97.60
2023-01-31T05:16:14.993Z,97.50
2023-01-31T05:17:14.878Z,97.50
2023-01-31T05:18:14.865Z,97.60
2023-01-31T05:19:14.866Z,97.50
2023-01-31T05:20:14.845Z,97.71
2023-01-31T05:21:14.854Z,97.92
2023-01-31T05:22:14.843Z,97.92
2023-01-31T05:23:14.839Z,97.92
2023-01-31T05:24:14.805Z,97.81
2023-01-31T05:25:14.845Z,97.87
2023-01-31T05:26:14.896Z,97.66
2023-01-31T05:27:14.772Z,97.56
2023-01-31T05:28:14.767Z,97.60
2023-01-31T05:29:14.754Z,97.66
2023-01-31T05:30:14.746Z,97.56
2023-01-31T05:31:14.906Z,97.45
2023-01-31T05:32:14.744Z,97.45
2023-01-31T05:33:14.719Z,97.45
2023-01-31T05:34:14.711Z,97.56
2023-01-31T05:35:14.727Z,97.45
2023-01-31T05:36:14.699Z,97.35
2023-01-31T05:37:14.685Z,97.45
2023-01-31T05:38:14.682Z,97.56
2023-01-31T05:39:14.652Z,97.30
2023-01-31T05:40:14.669Z,96.99
2023-01-31T05:41:14.680Z,96.99
2023-01-31T05:42:14.632Z,96.93
2023-01-31T05:43:14.627Z,96.93
2023-01-31T05:44:14.640Z,96.93
2023-01-31T05:45:14.624Z,96.83
2023-01-31T05:46:14.646Z,96.89
2023-01-31T05:47:14.653Z,96.67
2023-01-31T05:48:14.559Z,96.67
2023-01-31T05:49:14.569Z,96.47
2023-01-31T05:50:14.548Z,96.25
2023-01-31T05:51:14.560Z,96.25
2023-01-31T05:52:14.524Z,96.15
2023-01-31T05:53:14.551Z,96.15
2023-01-31T05:54:14.513Z,96.25
2023-01-31T05:55:14.496Z,96.04
2023-01-31T05:56:14.506Z,96.25
2023-01-31T05:57:14.496Z,95.94
2023-01-31T05:58:14.515Z,95.84
2023-01-31T05:59:14.467Z,95.73
2023-01-31T06:00:14.432Z,95.73
2023-01-31T06:01:14.451Z,95.73
2023-01-31T06:02:14.535Z,95.73
2023-01-31T06:03:14.445Z,95.84
2023-01-31T06:04:14.428Z,95.73
2023-01-31T06:05:14.401Z,95.73
2023-01-31T06:06:14.385Z,95.84
2023-01-31T06:07:14.394Z,95.42
2023-01-31T06:08:14.359Z,95.42
2023-01-31T06:09:14.348Z,95.31
2023-01-31T06:10:14.339Z,95.21
2023-01-31T06:11:14.337Z,95.31
2023-01-31T06:12:14.357Z,95.52
2023-01-31T06:13:14.339Z,95.52
2023-01-31T06:14:14.311Z,95.62
2023-01-31T06:15:14.304Z,95.62
2023-01-31T06:16:14.300Z,95.67
2023-01-31T06:17:14.298Z,95.78
2023-01-31T06:18:14.275Z,95.78
2023-01-31T06:19:14.252Z,95.78
2023-01-31T06:20:14.304Z,95.92
2023-01-31T06:21:14.265Z,95.82
2023-01-31T06:22:14.224Z,96.03
2023-01-31T06:23:14.202Z,96.28
2023-01-31T06:24:14.265Z,96.39
2023-01-31T06:25:14.242Z,97.02
2023-01-31T06:26:14.289Z,97.12
2023-01-31T06:27:14.163Z,97.33
2023-01-31T06:28:14.152Z,97.64
2023-01-31T06:29:14.196Z,97.75
2023-01-31T06:30:14.170Z,97.86
2023-01-31T06:31:14.223Z,97.96
2023-01-31T06:32:14.125Z,98.49
2023-01-31T06:33:14.136Z,98.38
2023-01-31T06:34:14.093Z,98.49
2023-01-31T06:35:14.089Z,98.49
2023-01-31T06:36:15.039Z,98.49
2023-01-31T06:37:14.085Z,98.69
2023-01-31T06:38:14.084Z,98.91
2023-01-31T06:39:14.086Z,99.01
2023-01-31T06:40:14.031Z,99.01
2023-01-31T06:41:14.027Z,98.91
2023-01-31T06:42:14.016Z,99.11
2023-01-31T06:43:14.031Z,99.11
2023-01-31T06:44:13.989Z,99.33
2023-01-31T06:45:14.012Z,99.43
2023-01-31T06:46:14.026Z,99.49
2023-01-31T06:47:14.062Z,99.80
2023-01-31T06:48:13.954Z,99.70
2023-01-31T06:49:13.965Z,99.28
2023-01-31T06:50:13.948Z,99.38
2023-01-31T06:51:13.948Z,99.18
2023-01-31T06:52:15.114Z,99.18
2023-01-31T06:53:13.966Z,99.18
2023-01-31T06:54:13.894Z,99.07
2023-01-31T06:55:13.884Z,99.07
2023-01-31T06:56:13.879Z,99.07
2023-01-31T06:57:13.865Z,99.03
2023-01-31T06:58:13.881Z,98.92
2023-01-31T06:59:13.879Z,98.92
2023-01-31T07:00:13.836Z,98.92
2023-01-31T07:01:13.888Z,98.71
2023-01-31T07:02:13.826Z,98.61
2023-01-31T07:03:13.855Z,98.50
2023-01-31T07:04:13.811Z,98.50
2023-01-31T07:05:13.783Z,98.35
2023-01-31T07:06:13.788Z,98.35
2023-01-31T07:07:13.772Z,98.25
2023-01-31T07:08:13.749Z,98.14
2023-01-31T07:09:13.775Z,98.14
2023-01-31T07:10:13.743Z,97.93
2023-01-31T07:11:13.777Z,97.47
2023-01-31T07:12:13.714Z,97.16
2023-01-31T07:13:13.725Z,96.84
2023-01-31T07:14:13.763Z,96.59
2023-01-31T07:15:13.696Z,96.27
2023-01-31T07:16:13.720Z,96.06
2023-01-31T07:17:13.737Z,95.75
2023-01-31T07:18:13.656Z,95.39
2023-01-31T07:19:13.652Z,94.56
2023-01-31T07:20:13.651Z,94.13
2023-01-31T07:21:13.622Z,94.03
2023-01-31T07:22:13.606Z,93.57
2023-01-31T07:23:13.689Z,93.36
2023-01-31T07:24:13.612Z,93.15
2023-01-31T07:25:13.581Z,92.52
2023-01-31T07:26:13.659Z,92.16
2023-01-31T07:27:13.556Z,91.85
2023-01-31T07:28:13.547Z,91.54
2023-01-31T07:29:13.574Z,91.22
2023-01-31T07:30:13.524Z,91.02
2023-01-31T07:31:13.632Z,90.77
2023-01-31T07:32:13.508Z,90.24
2023-01-31T07:33:13.535Z,90.14
2023-01-31T07:34:13.491Z,89.61
2023-01-31T07:35:13.513Z,89.30
2023-01-31T07:36:13.460Z,89.09
2023-01-31T07:37:13.502Z,89.05
2023-01-31T07:38:13.446Z,88.64
2023-01-31T07:39:13.450Z,88.74
2023-01-31T07:40:13.417Z,88.11
2023-01-31T07:41:13.421Z,87.96
2023-01-31T07:42:13.402Z,87.55
2023-01-31T07:43:13.421Z,87.51
2023-01-31T07:44:13.404Z,87.13
2023-01-31T07:45:22.907Z,86.61
2023-01-31T07:46:14.452Z,86.29
2023-01-31T07:47:13.378Z,86.29
2023-01-31T07:48:13.342Z,85.94
2023-01-31T07:49:13.385Z,85.83
2023-01-31T07:50:13.326Z,85.42
2023-01-31T07:51:13.313Z,85.42
2023-01-31T07:52:13.363Z,85.21
2023-01-31T07:53:13.312Z,84.75
2023-01-31T07:54:13.286Z,83.78
2023-01-31T07:55:13.289Z,83.85
2023-01-31T07:56:13.254Z,84.48
2023-01-31T07:57:13.256Z,84.75
2023-01-31T07:58:13.665Z,84.65
2023-01-31T07:59:13.266Z,84.34
2023-01-31T08:00:13.239Z,83.81
2023-01-31T08:01:13.268Z,83.92
2023-01-31T08:02:13.210Z,83.85
2023-01-31T08:03:13.211Z,84.17
2023-01-31T08:04:20.992Z,83.92
2023-01-31T08:05:14.271Z,83.64
2023-01-31T08:06:13.230Z,83.75
2023-01-31T08:07:13.144Z,83.75
2023-01-31T08:08:13.134Z,83.64
2023-01-31T08:09:13.137Z,83.71
2023-01-31T08:10:13.136Z,83.29
2023-01-31T08:11:13.123Z,83.61
2023-01-31T08:12:13.130Z,83.29
2023-01-31T08:13:13.232Z,83.18
2023-01-31T08:14:13.082Z,83.29
2023-01-31T08:15:13.664Z,83.08
2023-01-31T08:16:13.055Z,83.15
2023-01-31T08:17:13.169Z,82.84
2023-01-31T08:18:13.049Z,82.46
2023-01-31T08:19:13.027Z,83.50
2023-01-31T08:20:13.011Z,83.81
2023-01-31T08:21:13.030Z,83.61
2023-01-31T08:22:13.027Z,83.95
2023-01-31T08:23:13.024Z,81.82
2023-01-31T08:24:12.968Z,80.33
2023-01-31T08:25:12.997Z,78.94
2023-01-31T08:26:12.981Z,77.86
2023-01-31T08:27:13.001Z,78.24
2023-01-31T08:28:12.956Z,79.35
2023-01-31T08:29:12.922Z,78.69
2023-01-31T08:30:12.904Z,77.58
2023-01-31T08:31:13.051Z,78.49
2023-01-31T08:32:12.933Z,77.55
2023-01-31T08:33:12.916Z,77.75
2023-01-31T08:34:12.865Z,77.96
2023-01-31T08:35:12.851Z,73.25
2023-01-31T08:36:12.908Z,71.87
2023-01-31T08:37:12.991Z,70.87
2023-01-31T08:38:16.680Z,70.15
2023-01-31T08:39:12.849Z,67.85
2023-01-31T08:40:12.829Z,66.99
2023-01-31T08:41:12.823Z,63.93
2023-01-31T08:42:12.785Z,62.93
2023-01-31T08:43:12.770Z,63.31
2023-01-31T08:44:12.789Z,64.46
2023-01-31T08:45:12.784Z,64.96
2023-01-31T08:46:12.767Z,63.75
2023-01-31T08:47:12.782Z,64.39
2023-01-31T08:48:12.740Z,67.24
2023-01-31T08:49:12.722Z,68.31
2023-01-31T08:50:26.003Z,70.36
2023-01-31T08:51:13.693Z,67.80
2023-01-31T08:52:12.669Z,68.22
2023-01-31T08:53:12.692Z,67.45
2023-01-31T08:54:12.691Z,70.35
2023-01-31T08:55:12.646Z,72.59
2023-01-31T08:56:12.665Z,73.97
2023-01-31T08:57:12.633Z,75.09
2023-01-31T08:58:12.625Z,76.99
2023-01-31T08:59:13.172Z,78.03
2023-01-31T09:00:12.640Z,78.76
2023-01-31T09:01:12.593Z,78.55
2023-01-31T09:02:12.627Z,78.87
2023-01-31T09:03:12.607Z,80.74
2023-01-31T09:04:12.597Z,80.68
2023-01-31T09:05:12.572Z,81.09
2023-01-31T09:06:12.525Z,81.16
2023-01-31T09:07:12.531Z,80.33
2023-01-31T09:08:13.151Z,81.23
2023-01-31T09:09:12.562Z,79.72
2023-01-31T09:10:12.483Z,71.35
2023-01-31T09:11:12.521Z,72.14
2023-01-31T09:12:12.695Z,73.56
2023-01-31T09:13:12.465Z,72.83
2023-01-31T09:14:12.454Z,71.63
2023-01-31T09:15:12.431Z,68.90
2023-01-31T09:16:13.156Z,66.26
2023-01-31T09:17:12.465Z,62.79
2023-01-31T09:18:12.436Z,63.46
2023-01-31T09:19:19.970Z,61.03
2023-01-31T09:20:12.368Z,57.99
2023-01-31T09:21:12.368Z,62.23
2023-01-31T09:22:12.355Z,61.22
2023-01-31T09:23:12.339Z,60.58
2023-01-31T09:24:12.362Z,61.27
2023-01-31T09:25:12.352Z,59.95
2023-01-31T09:26:12.487Z,60.33
2023-01-31T09:27:12.313Z,58.01
2023-01-31T09:28:12.292Z,57.70
2023-01-31T09:29:12.321Z,53.74
2023-01-31T09:30:12.279Z,55.30
2023-01-31T09:31:12.332Z,53.64
2023-01-31T09:32:12.270Z,57.39
2023-01-31T09:33:13.173Z,58.06
2023-01-31T09:34:12.240Z,58.19
2023-01-31T09:35:14.115Z,54.79
2023-01-31T09:36:12.219Z,56.10
2023-01-31T09:37:12.245Z,58.94
2023-01-31T09:38:12.181Z,58.99
2023-01-31T09:39:12.179Z,60.52
2023-01-31T09:40:12.187Z,60.13
2023-01-31T09:41:12.210Z,56.46
2023-01-31T09:42:12.151Z,54.05
2023-01-31T09:43:12.149Z,56.88
2023-01-31T09:44:12.122Z,58.37
2023-01-31T09:45:12.159Z,56.67
2023-01-31T09:46:12.096Z,54.05
2023-01-31T09:47:16.792Z,52.36
2023-01-31T09:48:12.084Z,55.28
2023-01-31T09:49:12.066Z,55.46
2023-01-31T09:50:12.125Z,55.66
2023-01-31T09:51:12.033Z,54.77
2023-01-31T09:52:12.052Z,57.34
2023-01-31T09:53:12.017Z,56.82
2023-01-31T09:54:12.030Z,54.94
2023-01-31T09:55:12.045Z,57.57
2023-01-31T09:56:12.054Z,57.76
2023-01-31T09:57:12.035Z,58.71
2023-01-31T09:58:11.969Z,58.58
2023-01-31T09:59:11.982Z,55.80
2023-01-31T10:00:11.982Z,56.93
2023-01-31T10:01:11.952Z,58.06
2023-01-31T10:02:11.978Z,58.22
2023-01-31T10:03:11.904Z,56.98
2023-01-31T10:04:11.988Z,57.03
2023-01-31T10:05:11.895Z,54.30
2023-01-31T10:06:11.926Z,55.51
2023-01-31T10:07:11.886Z,55.51
2023-01-31T10:08:11.853Z,55.21
2023-01-31T10:09:11.904Z,51.76
2023-01-31T10:10:11.861Z,53.74
2023-01-31T10:11:12.650Z,54.20
2023-01-31T10:12:11.850Z,54.69
2023-01-31T10:13:11.851Z,57.54
2023-01-31T10:14:11.804Z,55.38
2023-01-31T10:15:11.827Z,54.10
2023-01-31T10:16:11.793Z,51.31
2023-01-31T10:17:16.833Z,51.20
2023-01-31T10:18:11.743Z,51.77
2023-01-31T10:19:11.735Z,52.43
2023-01-31T10:20:11.739Z,50.59
2023-01-31T10:21:11.771Z,49.85
2023-01-31T10:22:11.715Z,48.54
2023-01-31T10:23:11.694Z,51.18
2023-01-31T10:24:11.689Z,46.84
2023-01-31T10:25:11.671Z,48.47
2023-01-31T10:26:13.771Z,56.23
2023-01-31T10:27:11.649Z,58.30
2023-01-31T10:28:11.717Z,59.07
2023-01-31T10:29:12.233Z,59.31
2023-01-31T10:30:11.692Z,62.49
2023-01-31T10:31:11.729Z,62.70
2023-01-31T10:32:11.716Z,63.90
2023-01-31T10:33:11.690Z,63.87
2023-01-31T10:34:11.605Z,63.99
2023-01-31T10:35:11.558Z,60.02
2023-01-31T10:36:11.601Z,55.77
2023-01-31T10:37:11.633Z,54.05
2023-01-31T10:38:11.537Z,56.03
2023-01-31T10:39:11.561Z,56.98
2023-01-31T10:40:11.522Z,60.18
2023-01-31T10:41:11.498Z,60.55
2023-01-31T10:42:11.560Z,61.07
2023-01-31T10:43:11.477Z,61.92
2023-01-31T10:44:11.484Z,62.75
2023-01-31T10:45:11.535Z,60.70
2023-01-31T10:46:11.553Z,59.17
2023-01-31T10:47:11.454Z,59.44
2023-01-31T10:48:11.435Z,59.36
2023-01-31T10:49:11.409Z,63.09
2023-01-31T10:50:11.472Z,63.53
2023-01-31T10:51:11.397Z,64.09
2023-01-31T10:52:11.446Z,62.57
2023-01-31T10:53:11.364Z,64.70
2023-01-31T10:54:11.362Z,64.25
2023-01-31T10:55:11.360Z,63.29
2023-01-31T10:56:11.342Z,64.32
2023-01-31T10:57:11.335Z,61.63
2023-01-31T10:58:11.339Z,62.34
2023-01-31T10:59:11.317Z,62.17
2023-01-31T11:00:11.333Z,62.13
2023-01-31T11:01:11.351Z,64.28
2023-01-31T11:02:11.369Z,64.90
2023-01-31T11:03:11.294Z,66.11
2023-01-31T11:04:11.255Z,66.80
2023-01-31T11:05:11.238Z,65.42
2023-01-31T11:06:11.234Z,66.69
2023-01-31T11:07:11.329Z,68.27
2023-01-31T11:08:11.208Z,69.04
2023-01-31T11:09:11.194Z,69.21
2023-01-31T11:10:11.185Z,67.52
2023-01-31T11:11:11.175Z,67.66
2023-01-31T11:12:11.727Z,68.41
2023-01-31T11:13:11.163Z,68.10
2023-01-31T11:14:11.185Z,67.90
2023-01-31T11:15:11.180Z,69.86
2023-01-31T11:16:11.236Z,71.08
2023-01-31T11:17:11.356Z,69.45
2023-01-31T11:18:11.718Z,68.34
2023-01-31T11:19:11.095Z,69.27
2023-01-31T11:20:11.089Z,68.96
2023-01-31T11:21:11.107Z,68.79
2023-01-31T11:22:11.081Z,70.17
2023-01-31T11:23:11.073Z,70.79
2023-01-31T11:24:11.043Z,70.25
2023-01-31T11:25:11.063Z,70.69
2023-01-31T11:26:11.018Z,70.90
2023-01-31T11:27:10.999Z,71.73
2023-01-31T11:28:10.992Z,71.00
2023-01-31T11:29:11.055Z,71.91
2023-01-31T11:30:11.003Z,70.48
2023-01-31T11:31:11.008Z,71.21
2023-01-31T11:32:10.969Z,72.11
2023-01-31T11:33:10.990Z,71.97
2023-01-31T11:34:10.958Z,72.25
2023-01-31T11:35:10.935Z,70.83
2023-01-31T11:36:10.905Z,72.49
2023-01-31T11:37:10.907Z,71.73
2023-01-31T11:38:11.685Z,71.73
2023-01-31T11:39:10.912Z,70.97
2023-01-31T11:40:11.716Z,71.18
2023-01-31T11:41:10.864Z,70.76
2023-01-31T11:42:10.909Z,71.08
2023-01-31T11:43:10.852Z,71.04
2023-01-31T11:44:10.908Z,70.39
2023-01-31T11:45:10.826Z,70.25
2023-01-31T11:46:10.908Z,69.59
2023-01-31T11:47:13.720Z,70.66
2023-01-31T11:48:10.784Z,70.90
2023-01-31T11:49:10.830Z,72.04
2023-01-31T11:50:10.780Z,71.49
2023-01-31T11:51:10.762Z,71.14
2023-01-31T11:52:10.762Z,70.45
2023-01-31T11:53:10.721Z,71.14
2023-01-31T11:54:10.777Z,70.52
2023-01-31T11:55:10.720Z,70.52
2023-01-31T11:56:10.704Z,71.45
2023-01-31T11:57:10.713Z,71.14
2023-01-31T11:58:10.685Z,70.87
2023-01-31T11:59:10.726Z,72.53
2023-01-31T12:00:10.666Z,71.39
2023-01-31T12:01:10.665Z,71.45
2023-01-31T12:02:10.796Z,71.49
2023-01-31T12:03:10.625Z,71.94
2023-01-31T12:04:10.755Z,73.11
2023-01-31T12:05:10.878Z,73.00
2023-01-31T12:06:10.611Z,73.18
2023-01-31T12:07:10.595Z,73.08
2023-01-31T12:08:10.582Z,73.39
2023-01-31T12:09:10.605Z,72.25
2023-01-31T12:10:10.551Z,72.87
2023-01-31T12:11:10.567Z,73.53
2023-01-31T12:12:10.531Z,74.22
2023-01-31T12:13:18.629Z,73.80
2023-01-31T12:14:11.572Z,73.63
2023-01-31T12:15:10.519Z,73.53
2023-01-31T12:16:10.492Z,74.60
2023-01-31T12:17:10.499Z,75.01
2023-01-31T12:18:10.473Z,74.46
2023-01-31T12:19:10.452Z,73.43
2023-01-31T12:20:26.613Z,74.15
2023-01-31T12:21:11.514Z,72.90
2023-01-31T12:22:10.447Z,73.74
2023-01-31T12:23:10.416Z,73.80
2023-01-31T12:24:10.421Z,72.66
2023-01-31T12:25:10.443Z,72.22
2023-01-31T12:26:12.306Z,71.91
2023-01-31T12:27:10.379Z,72.56
2023-01-31T12:28:10.413Z,72.01
2023-01-31T12:29:11.876Z,71.28
2023-01-31T12:30:10.366Z,71.52
2023-01-31T12:31:10.510Z,71.00
2023-01-31T12:32:10.336Z,71.11
2023-01-31T12:33:10.349Z,72.14
2023-01-31T12:34:10.297Z,72.22
2023-01-31T12:35:10.381Z,71.21
2023-01-31T12:36:10.304Z,71.80
2023-01-31T12:37:10.329Z,71.08
2023-01-31T12:38:10.253Z,71.39
2023-01-31T12:39:10.332Z,72.22
2023-01-31T12:40:24.174Z,71.70
2023-01-31T12:41:11.243Z,72.35
2023-01-31T12:42:10.241Z,72.63
2023-01-31T12:43:10.246Z,72.42
2023-01-31T12:44:10.238Z,71.49
2023-01-31T12:45:10.181Z,71.25
2023-01-31T12:46:10.281Z,70.83
2023-01-31T12:47:11.848Z,71.28
2023-01-31T12:48:10.219Z,71.77
2023-01-31T12:49:10.196Z,70.52
2023-01-31T12:50:10.229Z,71.39
2023-01-31T12:51:10.186Z,71.66
2023-01-31T12:52:10.152Z,71.28